Details From CYEV - Inuvik Mike Zubko
To CYVQ - Norman Wells
Flight Number -
Tags Generated
Created
Modified
Stats Distance 245 nm / 454 km
Max Altitude 0 ft / 0 m
Waypoints 3
Social Downloads 0
Likes 0
Share VATSIM

Download

Looking for another format? Having issues loading an existing format? Contact us
Advertisement - Login to hide

Notes

Generated

Route

CYEV YVQ CYVQ

ID Type Via Altitude Latitude Longitude Leg Dist Tot Dist Heading (true) Name
O CYEV APT - 0 ft / 0 m 68.30319˚ -133.50528˚ - 0 nm - -
YVQ VOR - 0 ft / 0 m 65.26425˚ -126.72517˚ 242 nm 242 nm 136° / 142° -
O CYVQ APT - 0 ft / 0 m 65.28556˚ -126.81539˚ 2 nm 245 nm 299° / 299° -

Altitude Profile

Advertisement - Login to hide

Weather


0- 5 10 15 20 25 30 35+ Temperature / ° C

Clouds and Precipitation
Forecast for 2018-05-23 12:00 UTC. Updated 2 hours ago

Ground ~20,000 ft ~40,000 ft Winds

CYEV

Details ICAO CYEV (YEV)
Name INUVIK MIKE ZUBKO
Region Canada
Timezone America/Inuvik (UTC-6.0)
Stats Elevation 224 ft / 68 m (AMSL)
Location 68.303792° -133.483167°
Runways 1
Magnetic Variation 21.355° E

METAR

CYEV 231300Z 35007KT 6SM BR OVC005 M02/M03 A2978 RMK ST8 VIS NW-NE 3 SLP093

Decode

TAF

TAF CYEV 231238Z 2313/2401 36008KT 3SM -SN BR OVC005 TEMPO 2313/2317 P6SM NSW OVC010 PROB30 2313/2315 P6SM -FZRA FM231700 36008KT P6SM OVC015 TEMPO 2317/2401 6SM -SN RMK NXT FCST BY 231900Z

Decode

Departure Runways

ID Width Length Bearing (true) Bearing (mag) Surface Threshold Offset Overrun Length
06 150 ft / 46 m 5,982 ft / 1,823 m 85.80° 64.45° Asphalt 0 ft / 0 m 0 ft / 0 m
24 150 ft / 46 m 5,982 ft / 1,823 m 265.84° 244.49° Asphalt 0 ft / 0 m 0 ft / 0 m

CYVQ

Details ICAO CYVQ (YVQ)
Name NORMAN WELLS
Region Canada
Timezone America/Yellowknife (UTC-6.0)
Stats Elevation 238 ft / 73 m (AMSL)
Location 65.281616° -126.798222°
Runways 1
Magnetic Variation 20.838° E

METAR

CYVQ 231300Z 28012G19KT 30SM FEW050 FEW160 FEW180 SCT200 10/06 A2964 RMK CU1AC1AC1CI2 CU TR AC TR SLP042

Decode

TAF

TAF TAF CYVQ 231138Z 2312/2324 30008KT P6SM FEW050 BKN220 FM231800 28012KT P6SM SCT060 TEMPO 2321/2324 BKN060 RMK NXT FCST BY 231800Z

Decode

Destination Runways

ID Width Length Bearing (true) Bearing (mag) Surface Threshold Offset Overrun Length
09 150 ft / 46 m 5,977 ft / 1,822 m 118.74° 97.90° Asphalt 0 ft / 0 m 0 ft / 0 m
27 150 ft / 46 m 5,977 ft / 1,822 m 298.78° 277.94° Asphalt 0 ft / 0 m 0 ft / 0 m

Popular Alternatives